Alvarado, Minnesota
Current Conditions -  °F | °C
As of 3:53 PM on Saturday 27 Dec 2014 (Local Time) from KGFK Reporting Station
Overcast Overcast  
Wind Chill: -11°   Ceiling: 5000
Heat Index: -7°   Visibility: 8mi
Dew Point: -9°   Wind: 6mph
Humidity: 81%   Direction: 220°SW
Pressure: 30.02"   Gusts: NA
Location:  48.19°N, 97°W
Report Text: KGFK 272153Z 22005KT 8SM BKN050 OVC065 M07/M09 A3002 RMK AO2 SLP186 T10671094 $
Loading
Personal Weather Stations






























Interactive Weather Map New forecast layout! Learn more

10-Day Weather Forecast

Advertisements
Track Severe Weather on mobile